Time;durP1;ratioP1;P1;durP2;ratioP2;P2;SDS_P1;SDS_P2;PMS_P1;PMS_P2;Temp;Humidity;BMP_temperature;BMP_pressure;BME280_temperature;BME280_humidity;BME280_pressure;Samples;Min_cycle;Max_cycle;Signal;HPM_P1;HPM_P2
2023/11/18 00:00:59;;;;;;;6.20;3.20;;;;;;;;;;5054420;28;20203;-81
2023/11/18 00:03:26;;;;;;;4.17;2.73;;;;;;;;;;5054192;28;20283;-81
2023/11/18 00:05:54;;;;;;;7.30;2.97;;;;;;;;;;5053506;28;20191;-80
2023/11/18 00:08:21;;;;;;;7.67;2.90;;;;;;;;;;5054502;28;20200;-81
2023/11/18 00:10:48;;;;;;;7.30;3.40;;;;;;;;;;5053721;28;20234;-81
2023/11/18 00:13:17;;;;;;;8.23;3.00;;;;;;;;;;5053736;28;20311;-80
2023/11/18 00:15:45;;;;;;;8.10;3.17;;;;;;;;;;5053688;28;20299;-81
2023/11/18 00:18:13;;;;;;;4.50;3.17;;;;;;;;;;5053171;28;20203;-81
2023/11/18 00:20:40;;;;;;;7.73;2.87;;;;;;;;;;5053269;28;20688;-80
2023/11/18 00:23:07;;;;;;;6.27;2.97;;;;;;;;;;5053474;28;20732;-81
2023/11/18 00:25:36;;;;;;;4.97;2.90;;;;;;;;;;5053831;28;20200;-80
2023/11/18 00:28:03;;;;;;;9.00;3.20;;;;;;;;;;5053632;28;20206;-79
2023/11/18 00:30:32;;;;;;;5.27;2.90;;;;;;;;;;5053269;28;20231;-80
2023/11/18 00:32:59;;;;;;;8.20;3.30;;;;;;;;;;5053560;28;20315;-80
2023/11/18 00:35:26;;;;;;;6.70;3.10;;;;;;;;;;5053481;28;20235;-80
2023/11/18 00:37:53;;;;;;;4.80;2.90;;;;;;;;;;5052677;28;20290;-81
2023/11/18 00:40:19;;;;;;;8.27;3.00;;;;;;;;;;5053456;28;20231;-80
2023/11/18 00:42:46;;;;;;;3.77;2.30;;;;;;;;;;5053322;28;20222;-80
2023/11/18 00:45:14;;;;;;;4.67;2.50;;;;;;;;;;5053268;28;20227;-80
2023/11/18 00:47:42;;;;;;;5.73;2.73;;;;;;;;;;5053407;28;20832;-81
2023/11/18 00:50:10;;;;;;;3.47;2.00;;;;;;;;;;5053265;28;20227;-80
2023/11/18 00:52:38;;;;;;;6.33;2.60;;;;;;;;;;5052675;28;20331;-80
2023/11/18 00:55:07;;;;;;;6.20;2.30;;;;;;;;;;5052829;28;20206;-80
2023/11/18 00:57:34;;;;;;;7.40;2.37;;;;;;;;;;5052905;28;20196;-81
2023/11/18 01:00:02;;;;;;;6.20;2.40;;;;;;;;;;5053116;28;20191;-81
2023/11/18 01:02:29;;;;;;;3.57;2.27;;;;;;;;;;5052840;28;20204;-79
2023/11/18 01:04:58;;;;;;;6.27;2.83;;;;;;;;;;5052778;28;20253;-80
2023/11/18 01:07:25;;;;;;;4.43;2.37;;;;;;;;;;5052682;28;20278;-80
2023/11/18 01:09:52;;;;;;;5.87;2.43;;;;;;;;;;5052874;28;20315;-80
2023/11/18 01:12:20;;;;;;;5.40;2.50;;;;;;;;;;5052378;28;20202;-81
2023/11/18 01:14:47;;;;;;;5.70;2.43;;;;;;;;;;5052485;28;20253;-80
2023/11/18 01:17:14;;;;;;;5.83;2.60;;;;;;;;;;5052348;28;20283;-80
2023/11/18 01:19:42;;;;;;;5.27;2.07;;;;;;;;;;5052206;28;20199;-80
2023/11/18 01:22:11;;;;;;;4.03;2.60;;;;;;;;;;5051727;28;20200;-80
2023/11/18 01:24:39;;;;;;;5.60;2.63;;;;;;;;;;5051989;28;20227;-79
2023/11/18 01:27:07;;;;;;;4.00;2.30;;;;;;;;;;5052287;28;20227;-80
2023/11/18 01:29:34;;;;;;;3.77;2.30;;;;;;;;;;5052124;28;20198;-80
2023/11/18 01:32:08;;;;;;;6.33;2.60;;;;;;;;;;5052519;28;20195;-80
2023/11/18 01:34:36;;;;;;;4.60;2.40;;;;;;;;;;5052042;28;20254;-80
2023/11/18 01:37:04;;;;;;;6.30;2.73;;;;;;;;;;5052152;28;20215;-80
2023/11/18 01:39:33;;;;;;;4.83;2.37;;;;;;;;;;5052221;28;20212;-80
2023/11/18 01:42:00;;;;;;;6.23;3.00;;;;;;;;;;5052330;28;20208;-80
2023/11/18 01:44:28;;;;;;;7.03;2.57;;;;;;;;;;5051789;28;20199;-81
2023/11/18 01:46:55;;;;;;;5.07;2.20;;;;;;;;;;5052097;28;20208;-80
2023/11/18 01:49:22;;;;;;;7.90;2.80;;;;;;;;;;5051972;28;20279;-80
2023/11/18 01:51:52;;;;;;;5.67;2.60;;;;;;;;;;5052207;28;20246;-80
2023/11/18 01:54:19;;;;;;;7.30;2.57;;;;;;;;;;5051545;28;20255;-80
2023/11/18 01:56:49;;;;;;;6.00;2.33;;;;;;;;;;5051994;28;20195;-80
2023/11/18 01:59:18;;;;;;;6.17;2.80;;;;;;;;;;5051819;28;20200;-80
2023/11/18 02:01:48;;;;;;;5.07;2.60;;;;;;;;;;5051572;28;20202;-80
2023/11/18 02:04:15;;;;;;;4.50;2.50;;;;;;;;;;5051609;28;20346;-80
2023/11/18 02:06:44;;;;;;;5.13;2.20;;;;;;;;;;5051190;28;20203;-80
2023/11/18 02:09:12;;;;;;;6.60;2.90;;;;;;;;;;5051836;28;20199;-80
2023/11/18 02:11:43;;;;;;;5.57;2.70;;;;;;;;;;5051968;28;20257;-81
2023/11/18 02:14:16;;;;;;;4.50;2.73;;;;;;;;;;5051685;28;20290;-81
2023/11/18 02:16:44;;;;;;;6.70;2.67;;;;;;;;;;5051577;28;20611;-81
2023/11/18 02:19:18;;;;;;;7.97;2.73;;;;;;;;;;5051242;28;20261;-81
2023/11/18 02:21:46;;;;;;;7.13;2.70;;;;;;;;;;5051694;28;20223;-80
2023/11/18 02:24:26;;;;;;;7.90;2.40;;;;;;;;;;5051461;28;20581;-80
2023/11/18 02:26:56;;;;;;;4.37;2.80;;;;;;;;;;5051050;28;20721;-80
2023/11/18 02:29:23;;;;;;;9.07;2.93;;;;;;;;;;5051425;28;20566;-80
2023/11/18 02:31:55;;;;;;;8.70;3.00;;;;;;;;;;5050908;28;20226;-80
2023/11/18 02:34:27;;;;;;;7.67;3.20;;;;;;;;;;5050540;28;20246;-79
2023/11/18 02:36:55;;;;;;;7.10;2.93;;;;;;;;;;5051330;28;20647;-80
2023/11/18 02:39:23;;;;;;;8.10;3.13;;;;;;;;;;5050852;28;20226;-80
2023/11/18 02:41:56;;;;;;;7.33;3.70;;;;;;;;;;5051781;28;20199;-80
2023/11/18 02:44:25;;;;;;;7.60;3.40;;;;;;;;;;5051064;28;20208;-81
2023/11/18 02:46:52;;;;;;;3.73;3.03;;;;;;;;;;5051161;28;20204;-80
2023/11/18 02:49:20;;;;;;;6.83;3.50;;;;;;;;;;5051127;28;20249;-80
2023/11/18 02:51:47;;;;;;;9.67;3.27;;;;;;;;;;5051305;28;20608;-80
2023/11/18 02:54:16;;;;;;;7.57;3.77;;;;;;;;;;5051536;28;20227;-80
2023/11/18 02:56:43;;;;;;;6.97;3.43;;;;;;;;;;5051189;28;20218;-80
2023/11/18 02:59:10;;;;;;;8.33;4.13;;;;;;;;;;5051462;28;20278;-81
2023/11/18 03:01:39;;;;;;;6.17;3.87;;;;;;;;;;5051008;28;20582;-81
2023/11/18 03:04:08;;;;;;;7.57;4.10;;;;;;;;;;5050970;28;20196;-80
2023/11/18 03:06:36;;;;;;;9.27;4.27;;;;;;;;;;5050703;28;20200;-80
2023/11/18 03:09:06;;;;;;;8.47;3.80;;;;;;;;;;5050656;28;20940;-80
2023/11/18 03:11:34;;;;;;;9.23;4.13;;;;;;;;;;5050934;28;20668;-80
2023/11/18 03:14:01;;;;;;;7.20;4.00;;;;;;;;;;5050908;28;20711;-80
2023/11/18 03:16:28;;;;;;;9.73;4.10;;;;;;;;;;5050724;28;20455;-80
2023/11/18 03:18:58;;;;;;;5.73;4.23;;;;;;;;;;5050574;28;20199;-80
2023/11/18 03:21:26;;;;;;;8.27;4.03;;;;;;;;;;5051034;28;20199;-80
2023/11/18 03:23:54;;;;;;;8.50;4.87;;;;;;;;;;5050863;28;20253;-80
2023/11/18 03:26:21;;;;;;;10.10;4.37;;;;;;;;;;5050727;28;20207;-81
2023/11/18 03:28:49;;;;;;;10.37;4.20;;;;;;;;;;5049047;28;20200;-81
2023/11/18 03:31:16;;;;;;;9.33;4.40;;;;;;;;;;5043656;28;20200;-79
2023/11/18 03:33:44;;;;;;;8.70;4.07;;;;;;;;;;5025326;28;20281;-80
2023/11/18 03:36:13;;;;;;;8.10;4.10;;;;;;;;;;5050464;28;20327;-80
2023/11/18 03:38:40;;;;;;;7.93;4.13;;;;;;;;;;5050458;28;20215;-80
2023/11/18 03:41:08;;;;;;;8.47;3.77;;;;;;;;;;5050415;28;20631;-80
2023/11/18 03:43:35;;;;;;;7.90;4.30;;;;;;;;;;5051195;28;20202;-80
2023/11/18 03:46:03;;;;;;;6.73;4.03;;;;;;;;;;5050178;28;20196;-80
2023/11/18 03:48:30;;;;;;;8.03;3.90;;;;;;;;;;5050184;28;20677;-79
2023/11/18 03:50:57;;;;;;;6.53;3.90;;;;;;;;;;5050158;28;20206;-80
2023/11/18 03:53:25;;;;;;;7.30;4.07;;;;;;;;;;5053473;28;20279;-80
2023/11/18 03:55:53;;;;;;;8.00;3.87;;;;;;;;;;5054108;28;20298;-80
2023/11/18 03:58:20;;;;;;;10.47;3.67;;;;;;;;;;5054138;28;20246;-80
2023/11/18 04:00:47;;;;;;;9.63;4.07;;;;;;;;;;5053891;28;20198;-81
2023/11/18 04:03:15;;;;;;;8.80;4.23;;;;;;;;;;5053936;28;20198;-80
2023/11/18 04:05:42;;;;;;;6.40;3.77;;;;;;;;;;5053555;28;20657;-79
2023/11/18 04:08:09;;;;;;;6.83;3.57;;;;;;;;;;5053963;28;20283;-80
2023/11/18 04:10:38;;;;;;;6.07;3.70;;;;;;;;;;5053915;28;20912;-81
2023/11/18 04:13:05;;;;;;;8.17;3.73;;;;;;;;;;5053692;28;20294;-79
2023/11/18 04:15:32;;;;;;;6.17;3.63;;;;;;;;;;5053196;28;20314;-81
2023/11/18 04:17:59;;;;;;;8.30;3.50;;;;;;;;;;5053519;28;20191;-81
2023/11/18 04:20:27;;;;;;;8.63;3.70;;;;;;;;;;5054060;28;20295;-80
2023/11/18 04:22:54;;;;;;;6.77;3.50;;;;;;;;;;5054076;28;20286;-81
2023/11/18 04:25:22;;;;;;;5.90;3.07;;;;;;;;;;5053832;28;20196;-80
2023/11/18 04:27:50;;;;;;;7.57;3.20;;;;;;;;;;5053691;28;20191;-80
2023/11/18 04:30:17;;;;;;;7.90;3.20;;;;;;;;;;5053360;28;20701;-80
2023/11/18 04:32:45;;;;;;;4.70;2.53;;;;;;;;;;5053386;28;20679;-81
2023/11/18 04:35:12;;;;;;;6.90;3.20;;;;;;;;;;5052738;28;20301;-80
2023/11/18 04:37:42;;;;;;;6.50;2.97;;;;;;;;;;5053205;28;20200;-81
2023/11/18 04:40:10;;;;;;;7.07;3.10;;;;;;;;;;5053604;28;20286;-80
2023/11/18 04:42:39;;;;;;;8.03;2.80;;;;;;;;;;5053750;28;20195;-81
2023/11/18 04:45:09;;;;;;;10.30;3.23;;;;;;;;;;5052634;28;20288;-80
2023/11/18 04:47:37;;;;;;;7.00;2.80;;;;;;;;;;5052996;28;20192;-80
2023/11/18 04:50:05;;;;;;;6.63;3.10;;;;;;;;;;5052826;28;20211;-81
2023/11/18 04:52:34;;;;;;;7.10;2.97;;;;;;;;;;5053089;28;20196;-80
2023/11/18 04:55:02;;;;;;;8.20;2.90;;;;;;;;;;5053384;28;20616;-80
2023/11/18 04:57:29;;;;;;;8.87;3.23;;;;;;;;;;5052919;28;20668;-81
2023/11/18 04:59:56;;;;;;;6.37;2.90;;;;;;;;;;5053195;28;20218;-80
2023/11/18 05:02:25;;;;;;;12.00;2.97;;;;;;;;;;5052177;28;20227;-80
2023/11/18 05:04:52;;;;;;;4.37;2.80;;;;;;;;;;5052990;28;20290;-80
2023/11/18 05:07:19;;;;;;;6.90;2.73;;;;;;;;;;5053121;28;20234;-80
2023/11/18 05:09:46;;;;;;;8.00;2.90;;;;;;;;;;5052734;28;20231;-80
2023/11/18 05:12:13;;;;;;;8.30;3.00;;;;;;;;;;5052521;28;20295;-80
2023/11/18 05:14:40;;;;;;;6.80;2.67;;;;;;;;;;5052561;28;20318;-81
2023/11/18 05:17:08;;;;;;;7.93;2.77;;;;;;;;;;5052604;28;20284;-80
2023/11/18 05:19:36;;;;;;;7.40;2.67;;;;;;;;;;5052523;28;20199;-80
2023/11/18 05:22:04;;;;;;;8.30;2.70;;;;;;;;;;5052692;28;20306;-79
2023/11/18 05:24:31;;;;;;;11.33;2.90;;;;;;;;;;5052324;28;20295;-80
2023/11/18 05:27:01;;;;;;;7.13;2.60;;;;;;;;;;5053038;28;20203;-81
2023/11/18 05:29:28;;;;;;;7.33;2.77;;;;;;;;;;5051957;28;20200;-80
2023/11/18 05:31:55;;;;;;;7.87;2.40;;;;;;;;;;5052289;28;20227;-81
2023/11/18 05:34:23;;;;;;;7.40;2.33;;;;;;;;;;5051968;28;20678;-80
2023/11/18 05:36:54;;;;;;;7.83;2.37;;;;;;;;;;5052072;28;20196;-80
2023/11/18 05:39:21;;;;;;;7.00;2.30;;;;;;;;;;5052137;28;20282;-81
2023/11/18 05:41:49;;;;;;;9.77;2.40;;;;;;;;;;5052285;28;20192;-80
2023/11/18 05:44:19;;;;;;;7.23;2.30;;;;;;;;;;5051681;28;20209;-80
2023/11/18 05:46:47;;;;;;;7.87;2.23;;;;;;;;;;5052047;28;20196;-80
2023/11/18 05:49:14;;;;;;;7.43;2.20;;;;;;;;;;5052248;28;20282;-80
2023/11/18 05:51:41;;;;;;;12.63;2.90;;;;;;;;;;5051850;28;20294;-80
2023/11/18 05:54:10;;;;;;;6.70;2.30;;;;;;;;;;5052119;28;20219;-80
2023/11/18 05:56:37;;;;;;;7.30;2.17;;;;;;;;;;5051710;28;20238;-80
2023/11/18 05:59:05;;;;;;;8.77;2.50;;;;;;;;;;5051349;28;20198;-80
2023/11/18 06:01:32;;;;;;;10.30;2.77;;;;;;;;;;5051561;28;20278;-80
2023/11/18 06:04:00;;;;;;;6.10;1.57;;;;;;;;;;5051766;28;20206;-80
2023/11/18 06:06:27;;;;;;;7.27;1.83;;;;;;;;;;5052397;28;20196;-81
2023/11/18 06:08:55;;;;;;;6.50;1.93;;;;;;;;;;5051726;28;20227;-80
2023/11/18 06:11:23;;;;;;;7.20;1.73;;;;;;;;;;5051478;28;20265;-80
2023/11/18 06:13:51;;;;;;;6.43;2.10;;;;;;;;;;5050841;28;20202;-81
2023/11/18 06:16:20;;;;;;;7.20;1.80;;;;;;;;;;5050986;28;20259;-80
2023/11/18 06:18:48;;;;;;;6.63;2.00;;;;;;;;;;5051514;28;20196;-80
2023/11/18 06:21:15;;;;;;;8.17;1.90;;;;;;;;;;5051475;28;20283;-79
2023/11/18 06:23:42;;;;;;;6.93;1.70;;;;;;;;;;5051497;28;20307;-80
2023/11/18 06:26:11;;;;;;;8.30;1.97;;;;;;;;;;5051063;28;20291;-80
2023/11/18 06:28:41;;;;;;;7.27;1.90;;;;;;;;;;5051406;28;20218;-80
2023/11/18 06:31:08;;;;;;;8.07;2.10;;;;;;;;;;5051721;28;20192;-79
2023/11/18 06:33:39;;;;;;;11.47;2.30;;;;;;;;;;5051233;28;20323;-82
2023/11/18 06:36:07;;;;;;;8.70;2.40;;;;;;;;;;5051574;28;20651;-86
2023/11/18 06:38:35;;;;;;;7.50;2.53;;;;;;;;;;5051734;28;20290;-86
2023/11/18 06:41:05;;;;;;;7.17;2.10;;;;;;;;;;5034038;28;20191;-87
2023/11/18 06:43:45;;;;;;;10.13;2.67;;;;;;;;;;5052243;28;20200;-87
2023/11/18 06:46:14;;;;;;;7.93;1.90;;;;;;;;;;5052317;28;20286;-87
2023/11/18 06:48:41;;;;;;;11.23;2.13;;;;;;;;;;5052260;28;20282;-87
2023/11/18 06:51:09;;;;;;;7.27;2.03;;;;;;;;;;5051518;28;20202;-88
2023/11/18 06:53:36;;;;;;;6.57;2.10;;;;;;;;;;5052192;28;20283;-87
2023/11/18 06:56:04;;;;;;;6.10;2.03;;;;;;;;;;5052044;28;20327;-86
2023/11/18 06:58:31;;;;;;;6.70;1.97;;;;;;;;;;5052008;28;20199;-87
2023/11/18 07:00:59;;;;;;;9.50;2.27;;;;;;;;;;5052143;28;20192;-86
2023/11/18 07:03:27;;;;;;;4.33;1.80;;;;;;;;;;5052091;28;20199;-87
2023/11/18 07:05:54;;;;;;;8.47;1.90;;;;;;;;;;5052168;28;20284;-87
2023/11/18 07:08:22;;;;;;;4.83;1.90;;;;;;;;;;5051962;28;20230;-87
2023/11/18 07:10:49;;;;;;;8.07;2.00;;;;;;;;;;5051842;28;20227;-87
2023/11/18 07:13:17;;;;;;;5.13;1.83;;;;;;;;;;5052149;28;20192;-87
2023/11/18 07:15:44;;;;;;;6.80;1.90;;;;;;;;;;5051661;28;20314;-87
2023/11/18 07:18:11;;;;;;;6.93;1.87;;;;;;;;;;5051821;28;20694;-87
2023/11/18 07:20:40;;;;;;;6.70;2.10;;;;;;;;;;5051662;28;20192;-86
2023/11/18 07:23:08;;;;;;;9.23;2.27;;;;;;;;;;5051537;28;20293;-86
2023/11/18 07:25:35;;;;;;;6.03;2.10;;;;;;;;;;5051517;28;20261;-86
2023/11/18 07:28:04;;;;;;;7.27;2.10;;;;;;;;;;5054929;28;20297;-86
2023/11/18 07:30:32;;;;;;;6.00;1.77;;;;;;;;;;5055515;28;20196;-87
2023/11/18 07:33:01;;;;;;;6.57;2.00;;;;;;;;;;5053581;28;20203;-84
2023/11/18 07:35:29;;;;;;;9.40;1.83;;;;;;;;;;5034634;28;20224;-85
2023/11/18 07:37:58;;;;;;;6.67;2.10;;;;;;;;;;5034821;28;20711;-85
2023/11/18 07:40:29;;;;;;;6.00;2.00;;;;;;;;;;5034948;28;20193;-85
2023/11/18 07:42:56;;;;;;;6.80;1.80;;;;;;;;;;5035072;28;20234;-84
2023/11/18 07:45:24;;;;;;;8.83;2.10;;;;;;;;;;5034411;28;20379;-85
2023/11/18 07:47:51;;;;;;;6.30;1.97;;;;;;;;;;5035403;28;20284;-85
2023/11/18 07:50:19;;;;;;;7.00;2.10;;;;;;;;;;5035274;28;20205;-86
2023/11/18 07:52:47;;;;;;;5.60;2.23;;;;;;;;;;5034714;28;20212;-86
2023/11/18 07:55:16;;;;;;;4.70;1.93;;;;;;;;;;5034705;28;20236;-84
2023/11/18 07:57:43;;;;;;;4.83;2.20;;;;;;;;;;5033935;28;20288;-86
2023/11/18 08:00:11;;;;;;;8.27;2.10;;;;;;;;;;5034210;28;20200;-84
2023/11/18 08:02:39;;;;;;;6.83;1.97;;;;;;;;;;5034334;28;20235;-86
2023/11/18 08:05:09;;;;;;;5.20;1.83;;;;;;;;;;5034288;28;20231;-86
2023/11/18 08:07:36;;;;;;;5.30;1.80;;;;;;;;;;5034551;28;20617;-86
2023/11/18 08:10:05;;;;;;;6.90;1.83;;;;;;;;;;5027057;28;20757;-86
2023/11/18 08:12:34;;;;;;;7.33;1.90;;;;;;;;;;4997072;28;20197;-86
2023/11/18 08:15:02;;;;;;;4.40;1.70;;;;;;;;;;5014426;28;20249;-85
2023/11/18 08:17:30;;;;;;;3.70;1.70;;;;;;;;;;4997054;28;20247;-87
2023/11/18 08:19:57;;;;;;;6.47;2.20;;;;;;;;;;5014093;28;20251;-87
2023/11/18 08:22:25;;;;;;;5.47;1.90;;;;;;;;;;5014380;28;20292;-87
2023/11/18 08:24:52;;;;;;;3.83;1.70;;;;;;;;;;5011903;28;20204;-86
2023/11/18 08:27:20;;;;;;;5.87;2.33;;;;;;;;;;4665961;28;9999752;-86
2023/11/18 08:29:49;;;;;;;6.13;1.97;;;;;;;;;;4995260;28;20576;-86
2023/11/18 08:32:17;;;;;;;6.13;2.30;;;;;;;;;;5012366;28;20256;-87
2023/11/18 08:34:44;;;;;;;7.37;2.23;;;;;;;;;;5019972;28;20274;-86
2023/11/18 08:37:13;;;;;;;5.50;2.20;;;;;;;;;;5020764;28;20334;-85
2023/11/18 08:39:40;;;;;;;4.87;2.40;;;;;;;;;;5027921;28;20735;-86
2023/11/18 08:42:08;;;;;;;7.70;2.50;;;;;;;;;;5028099;28;20219;-86
2023/11/18 08:44:35;;;;;;;7.10;2.43;;;;;;;;;;5032675;28;20211;-85
2023/11/18 08:47:08;;;;;;;4.03;2.10;;;;;;;;;;5032457;28;20287;-86
2023/11/18 08:49:37;;;;;;;4.77;2.37;;;;;;;;;;5033542;28;20317;-86
2023/11/18 08:52:09;;;;;;;6.17;2.23;;;;;;;;;;5031201;28;20611;-86
2023/11/18 08:54:37;;;;;;;6.30;2.70;;;;;;;;;;5028007;28;20291;-87
2023/11/18 08:57:19;;;;;;;6.73;2.67;;;;;;;;;;5032505;28;20244;-86
2023/11/18 08:59:47;;;;;;;4.97;2.50;;;;;;;;;;5033944;28;20316;-86
2023/11/18 09:02:23;;;;;;;8.33;3.13;;;;;;;;;;5032498;28;20208;-86
2023/11/18 09:04:50;;;;;;;7.97;2.83;;;;;;;;;;5034382;28;20552;-87
2023/11/18 09:07:19;;;;;;;6.10;2.70;;;;;;;;;;5033638;28;20280;-86
2023/11/18 09:09:49;;;;;;;8.10;2.90;;;;;;;;;;5024249;28;20202;-86
2023/11/18 09:12:18;;;;;;;7.83;3.27;;;;;;;;;;5021701;28;20205;-86
2023/11/18 09:14:47;;;;;;;5.13;3.23;;;;;;;;;;5033642;28;20208;-86
2023/11/18 09:17:16;;;;;;;5.33;3.07;;;;;;;;;;5028835;28;20679;-86
2023/11/18 09:19:45;;;;;;;5.50;3.27;;;;;;;;;;5029056;28;20196;-84
2023/11/18 09:22:14;;;;;;;8.77;3.50;;;;;;;;;;5022993;28;20205;-86
2023/11/18 09:24:42;;;;;;;7.20;3.30;;;;;;;;;;5020969;28;20205;-86
2023/11/18 09:27:09;;;;;;;8.80;3.80;;;;;;;;;;5028077;28;20283;-85
2023/11/18 09:29:36;;;;;;;8.13;3.67;;;;;;;;;;5028954;28;20211;-86
2023/11/18 09:32:05;;;;;;;8.53;3.60;;;;;;;;;;5029675;28;20215;-86
2023/11/18 09:34:34;;;;;;;8.27;4.00;;;;;;;;;;5043674;28;20313;-87
2023/11/18 09:37:01;;;;;;;6.63;4.30;;;;;;;;;;5049387;28;20326;-85
2023/11/18 09:39:37;;;;;;;7.70;4.40;;;;;;;;;;5049547;28;20200;-86
2023/11/18 09:42:08;;;;;;;9.87;4.90;;;;;;;;;;5050240;28;20886;-86
2023/11/18 09:44:37;;;;;;;8.60;5.47;;;;;;;;;;5050282;28;20250;-86
2023/11/18 09:47:09;;;;;;;8.77;5.57;;;;;;;;;;5049955;28;20215;-85
2023/11/18 09:49:41;;;;;;;9.87;5.73;;;;;;;;;;5048281;28;20199;-83
2023/11/18 09:52:11;;;;;;;10.57;6.07;;;;;;;;;;5052130;28;20200;-86
2023/11/18 09:54:42;;;;;;;9.40;6.03;;;;;;;;;;5052802;28;20289;-85
2023/11/18 09:57:13;;;;;;;13.37;6.33;;;;;;;;;;5052330;28;20686;-85
2023/11/18 09:59:44;;;;;;;10.47;6.53;;;;;;;;;;5053175;28;20196;-85
2023/11/18 10:02:12;;;;;;;13.03;6.87;;;;;;;;;;5052471;28;20188;-85
2023/11/18 10:04:41;;;;;;;13.20;7.00;;;;;;;;;;5052539;28;20219;-85
2023/11/18 10:07:10;;;;;;;16.77;7.10;;;;;;;;;;5052774;28;20195;-84
2023/11/18 10:09:38;;;;;;;16.47;7.10;;;;;;;;;;5053032;28;20208;-85
2023/11/18 10:12:06;;;;;;;15.63;7.40;;;;;;;;;;5034701;28;20282;-85
2023/11/18 10:14:33;;;;;;;18.07;6.97;;;;;;;;;;5052509;28;20275;-86
2023/11/18 10:17:04;;;;;;;22.70;8.07;;;;;;;;;;5050155;28;20314;-86
2023/11/18 10:19:46;;;;;;;16.17;7.70;;;;;;;;;;5040768;28;20235;-87
2023/11/18 10:22:22;;;;;;;17.60;8.17;;;;;;;;;;5051107;28;20208;-86
2023/11/18 10:24:54;;;;;;;17.40;8.57;;;;;;;;;;5048722;28;20290;-86
2023/11/18 10:27:21;;;;;;;21.90;8.90;;;;;;;;;;5049664;28;21938;-86
2023/11/18 10:29:50;;;;;;;20.80;8.90;;;;;;;;;;5033100;28;20984;-86
2023/11/18 10:32:21;;;;;;;20.40;8.60;;;;;;;;;;5048928;28;20232;-86
2023/11/18 10:34:50;;;;;;;20.23;9.53;;;;;;;;;;5029638;28;20818;-86
2023/11/18 10:37:18;;;;;;;18.97;9.07;;;;;;;;;;5029812;28;20700;-86
2023/11/18 10:39:51;;;;;;;18.30;9.30;;;;;;;;;;5031157;28;20208;-85
2023/11/18 10:42:19;;;;;;;19.50;9.10;;;;;;;;;;5015304;28;20205;-85
2023/11/18 10:44:58;;;;;;;19.97;9.80;;;;;;;;;;5015173;28;20234;-85
2023/11/18 10:47:26;;;;;;;21.10;9.50;;;;;;;;;;5016766;28;20212;-85
2023/11/18 10:49:55;;;;;;;21.07;10.10;;;;;;;;;;5023967;28;20200;-86
2023/11/18 10:52:23;;;;;;;26.17;13.60;;;;;;;;;;5016898;28;20279;-85
2023/11/18 10:54:55;;;;;;;35.80;16.60;;;;;;;;;;5018810;28;20267;-86
2023/11/18 10:57:23;;;;;;;22.47;11.20;;;;;;;;;;5027064;28;20247;-85
2023/11/18 11:00:00;;;;;;;23.70;15.77;;;;;;;;;;5020534;28;20205;-84
2023/11/18 11:02:34;;;;;;;21.00;9.80;;;;;;;;;;5031742;28;20203;-85
2023/11/18 11:05:02;;;;;;;22.53;9.17;;;;;;;;;;5035609;28;20198;-85
2023/11/18 11:07:29;;;;;;;23.30;8.73;;;;;;;;;;5035399;28;20188;-86
2023/11/18 11:09:58;;;;;;;20.40;7.57;;;;;;;;;;5021098;28;20537;-85
2023/11/18 11:12:27;;;;;;;24.77;8.70;;;;;;;;;;5025568;28;20287;-85
2023/11/18 11:15:06;;;;;;;18.83;8.05;;;;;;;;;;5035625;28;20201;-85
2023/11/18 11:17:37;;;;;;;20.97;7.67;;;;;;;;;;5029302;28;20227;-85
2023/11/18 11:20:17;;;;;;;18.40;7.40;;;;;;;;;;5018018;28;20220;-84
2023/11/18 11:22:48;;;;;;;19.13;6.60;;;;;;;;;;5034656;28;20201;-84
2023/11/18 11:25:22;;;;;;;17.73;6.57;;;;;;;;;;5022640;28;20205;-85
2023/11/18 11:28:01;;;;;;;15.33;6.07;;;;;;;;;;5015042;28;20200;-85
2023/11/18 11:30:31;;;;;;;16.07;6.93;;;;;;;;;;5015322;28;20193;-85
2023/11/18 11:33:04;;;;;;;15.10;6.78;;;;;;;;;;5028535;28;20676;-86
2023/11/18 11:35:32;;;;;;;19.17;6.03;;;;;;;;;;5021131;28;20274;-85
2023/11/18 11:38:04;;;;;;;19.23;6.00;;;;;;;;;;5015117;28;20229;-84
2023/11/18 11:43:34;;;;;;;17.77;5.68;;;;;;;;;;4965197;28;20234;-86
2023/11/18 11:46:03;;;;;;;13.13;6.03;;;;;;;;;;4967273;28;20742;-85
2023/11/18 11:51:39;;;;;;;14.40;5.57;;;;;;;;;;4959884;28;20237;-86
2023/11/18 11:54:15;;;;;;;17.33;5.63;;;;;;;;;;5045066;23;20309;-86
2023/11/18 11:56:45;;;;;;;26.77;6.43;;;;;;;;;;5084771;28;20261;-85
2023/11/18 11:59:17;;;;;;;14.80;5.93;;;;;;;;;;5073050;28;20248;-85
2023/11/18 12:02:01;;;;;;;20.15;6.47;;;;;;;;;;5078741;28;20203;-86
2023/11/18 12:04:28;;;;;;;14.90;5.70;;;;;;;;;;5074602;28;20590;-85
2023/11/18 12:06:57;;;;;;;20.48;6.47;;;;;;;;;;5075724;28;20199;-84
2023/11/18 12:09:32;;;;;;;12.88;4.80;;;;;;;;;;5074941;28;20843;-84
2023/11/18 12:12:04;;;;;;;20.67;5.47;;;;;;;;;;5073249;28;20827;-85
2023/11/18 12:14:50;;;;;;;18.05;5.40;;;;;;;;;;5072200;28;20242;-86
2023/11/18 12:17:42;;;;;;;17.65;6.00;;;;;;;;;;5074280;28;20233;-87
2023/11/18 12:20:42;;;;;;;17.58;5.97;;;;;;;;;;4701304;28;10000063;-85
2023/11/18 12:25:45;;;;;;;21.80;5.25;;;;;;;;;;5275711;22;20937;-83
2023/11/18 12:28:21;;;;;;;17.88;5.40;;;;;;;;;;5061824;28;20208;-81
2023/11/18 12:31:04;;;;;;;13.73;5.03;;;;;;;;;;5069003;28;20914;-82
2023/11/18 12:33:46;;;;;;;14.38;5.28;;;;;;;;;;5061288;28;20203;-83
2023/11/18 12:36:40;;;;;;;12.63;4.75;;;;;;;;;;5057775;28;20245;-82
2023/11/18 12:39:23;;;;;;;13.18;4.97;;;;;;;;;;5068995;28;20191;-82
2023/11/18 12:41:57;;;;;;;18.98;5.90;;;;;;;;;;5061575;28;20231;-83
2023/11/18 12:44:31;;;;;;;13.32;5.45;;;;;;;;;;5069939;28;20235;-83
2023/11/18 12:47:14;;;;;;;18.80;5.75;;;;;;;;;;5068510;28;20194;-84
2023/11/18 12:49:42;;;;;;;17.55;5.55;;;;;;;;;;5062281;28;20285;-81
2023/11/18 12:52:11;;;;;;;13.98;4.45;;;;;;;;;;5072610;28;20936;-83
2023/11/18 12:54:43;;;;;;;14.57;4.75;;;;;;;;;;5073018;28;20199;-82
2023/11/18 12:57:13;;;;;;;14.82;4.50;;;;;;;;;;5072582;28;20226;-84
2023/11/18 12:59:41;;;;;;;14.50;4.22;;;;;;;;;;5059232;28;20206;-83
2023/11/18 13:02:13;;;;;;;11.48;3.63;;;;;;;;;;5070668;28;20574;-82
2023/11/18 13:04:41;;;;;;;19.35;5.00;;;;;;;;;;5071090;28;20745;-82
2023/11/18 13:07:12;;;;;;;13.52;3.83;;;;;;;;;;5069929;28;20202;-83
2023/11/18 13:09:42;;;;;;;12.00;3.97;;;;;;;;;;5072978;28;20260;-83
2023/11/18 13:12:10;;;;;;;15.73;4.15;;;;;;;;;;5069496;28;20217;-82
2023/11/18 13:14:39;;;;;;;11.75;4.00;;;;;;;;;;5073049;28;20261;-83
2023/11/18 13:17:08;;;;;;;13.30;4.28;;;;;;;;;;5072387;28;20707;-81
2023/11/18 13:19:37;;;;;;;15.40;4.00;;;;;;;;;;5071185;28;20278;-82
2023/11/18 13:22:08;;;;;;;15.27;5.53;;;;;;;;;;5071160;28;20210;-82
2023/11/18 13:24:40;;;;;;;11.30;4.20;;;;;;;;;;5071823;28;20246;-82
2023/11/18 13:27:08;;;;;;;13.60;4.10;;;;;;;;;;5072271;28;20209;-82
2023/11/18 13:29:39;;;;;;;15.10;3.95;;;;;;;;;;5071885;28;20656;-81
2023/11/18 13:32:15;;;;;;;11.15;3.60;;;;;;;;;;5072628;28;20206;-82
2023/11/18 13:34:44;;;;;;;13.40;4.18;;;;;;;;;;5070751;28;20195;-83
2023/11/18 13:37:12;;;;;;;11.82;4.05;;;;;;;;;;5052293;28;20232;-81
2023/11/18 13:39:41;;;;;;;10.80;3.63;;;;;;;;;;5051826;28;20664;-82
2023/11/18 13:42:21;;;;;;;11.27;3.50;;;;;;;;;;5066945;28;20552;-82
2023/11/18 13:44:54;;;;;;;15.30;4.10;;;;;;;;;;5071798;28;20626;-82
2023/11/18 13:47:22;;;;;;;12.82;3.97;;;;;;;;;;5072435;28;20190;-82
2023/11/18 13:49:58;;;;;;;16.38;4.20;;;;;;;;;;5071828;28;20281;-83
2023/11/18 13:52:30;;;;;;;8.93;4.18;;;;;;;;;;5071331;28;20206;-83
2023/11/18 13:55:06;;;;;;;17.58;4.78;;;;;;;;;;5071546;28;20196;-82
2023/11/18 13:57:34;;;;;;;14.50;4.68;;;;;;;;;;5071734;28;20245;-81
2023/11/18 14:00:02;;;;;;;15.05;4.05;;;;;;;;;;5071912;28;20195;-82
2023/11/18 14:02:29;;;;;;;13.95;4.20;;;;;;;;;;5071632;28;20262;-83
2023/11/18 14:04:58;;;;;;;15.70;5.03;;;;;;;;;;5070960;28;20829;-83
2023/11/18 14:07:25;;;;;;;16.55;4.63;;;;;;;;;;5071447;28;20290;-82
2023/11/18 14:09:56;;;;;;;12.30;4.32;;;;;;;;;;5071096;28;20209;-82
2023/11/18 14:12:27;;;;;;;10.02;4.00;;;;;;;;;;5071163;28;20199;-81
2023/11/18 14:14:54;;;;;;;15.48;4.15;;;;;;;;;;5070152;28;20209;-82
2023/11/18 14:17:21;;;;;;;15.70;4.63;;;;;;;;;;5066502;28;20227;-81
2023/11/18 14:19:49;;;;;;;14.63;4.10;;;;;;;;;;5071327;28;20223;-82
2023/11/18 14:22:17;;;;;;;12.63;4.28;;;;;;;;;;5069928;28;20207;-81
2023/11/18 14:24:45;;;;;;;15.65;4.25;;;;;;;;;;5057238;28;20239;-83
2023/11/18 14:27:13;;;;;;;11.68;3.80;;;;;;;;;;5071300;28;20230;-83
2023/11/18 14:29:42;;;;;;;16.95;4.38;;;;;;;;;;5061147;28;20226;-83
2023/11/18 14:32:10;;;;;;;12.23;4.72;;;;;;;;;;5078019;28;20222;-82
2023/11/18 14:34:38;;;;;;;17.20;3.72;;;;;;;;;;5070559;28;20285;-83
2023/11/18 14:37:06;;;;;;;12.45;4.22;;;;;;;;;;5067834;28;20219;-81
2023/11/18 14:39:36;;;;;;;15.20;4.50;;;;;;;;;;5058362;28;20206;-83
2023/11/18 14:42:05;;;;;;;12.32;4.50;;;;;;;;;;5051025;28;20211;-82
2023/11/18 14:44:32;;;;;;;13.18;4.40;;;;;;;;;;5051242;28;20291;-82
2023/11/18 14:47:00;;;;;;;16.42;4.38;;;;;;;;;;5050999;28;20227;-82
2023/11/18 14:49:27;;;;;;;16.63;5.05;;;;;;;;;;5065481;28;20203;-82
2023/11/18 14:51:56;;;;;;;10.98;4.00;;;;;;;;;;5071245;28;20199;-82
2023/11/18 14:54:23;;;;;;;8.48;4.75;;;;;;;;;;5070284;28;20222;-81
2023/11/18 14:56:54;;;;;;;10.48;4.13;;;;;;;;;;5071102;28;20195;-83
2023/11/18 14:59:22;;;;;;;11.77;4.97;;;;;;;;;;5070513;28;20252;-82